createdAt,value
2023-02-02T00:01:01.701Z,2.43
2023-02-02T00:03:28.386Z,2.62
2023-02-02T00:05:54.996Z,2.51
2023-02-02T00:08:22.453Z,2.42
2023-02-02T00:10:50.660Z,2.43
2023-02-02T00:13:17.451Z,2.44
2023-02-02T00:15:44.192Z,2.38
2023-02-02T00:18:11.036Z,2.22
2023-02-02T00:20:37.654Z,2.39
2023-02-02T00:23:04.685Z,2.38
2023-02-02T00:25:32.054Z,2.30
2023-02-02T00:27:58.791Z,1.72
2023-02-02T00:30:25.451Z,1.76
2023-02-02T00:32:53.208Z,2.22
2023-02-02T00:35:20.443Z,2.06
2023-02-02T00:37:47.030Z,2.08
2023-02-02T00:40:13.825Z,2.16
2023-02-02T00:42:40.709Z,2.12
2023-02-02T00:45:16.889Z,2.02
2023-02-02T00:47:47.553Z,2.36
2023-02-02T00:50:17.353Z,2.06
2023-02-02T00:52:43.998Z,2.07
2023-02-02T00:55:12.274Z,2.12
2023-02-02T00:57:38.997Z,2.01
2023-02-02T01:00:12.082Z,1.92
2023-02-02T01:02:38.697Z,1.85
2023-02-02T01:05:06.622Z,1.73
2023-02-02T01:07:33.216Z,1.76
2023-02-02T01:09:59.841Z,1.53
2023-02-02T01:12:26.424Z,1.10
2023-02-02T01:14:53.079Z,1.32
2023-02-02T01:17:21.180Z,1.52
2023-02-02T01:19:47.742Z,1.53
2023-02-02T01:22:14.433Z,1.58
2023-02-02T01:24:40.987Z,1.50
2023-02-02T01:27:07.750Z,1.36
2023-02-02T01:29:34.483Z,1.16
2023-02-02T01:32:01.226Z,1.33
2023-02-02T01:34:28.265Z,1.29
2023-02-02T01:36:54.822Z,1.24
2023-02-02T01:39:21.354Z,1.16
2023-02-02T01:41:48.126Z,1.11
2023-02-02T01:44:52.087Z,1.31
2023-02-02T01:47:20.890Z,1.36
2023-02-02T01:49:48.038Z,1.28
2023-02-02T01:52:19.469Z,0.98
2023-02-02T01:54:51.663Z,1.15
2023-02-02T01:58:02.307Z,1.28
2023-02-02T02:00:28.915Z,1.17
2023-02-02T02:03:02.266Z,1.15
2023-02-02T02:05:33.869Z,0.86
2023-02-02T02:08:15.388Z,1.03
2023-02-02T02:10:42.160Z,0.90
2023-02-02T02:13:09.816Z,0.84
2023-02-02T02:16:04.598Z,0.82
2023-02-02T02:19:07.931Z,1.00
2023-02-02T02:22:01.816Z,0.89
2023-02-02T02:25:05.994Z,1.09
2023-02-02T02:28:03.695Z,1.14
2023-02-02T02:31:10.664Z,1.04
2023-02-02T02:34:02.173Z,1.05
2023-02-02T02:36:48.265Z,1.04
2023-02-02T02:39:56.793Z,0.75
2023-02-02T02:42:27.462Z,0.95
2023-02-02T02:44:57.462Z,0.63
2023-02-02T02:47:24.499Z,0.78
2023-02-02T02:49:51.126Z,0.96
2023-02-02T02:52:17.762Z,0.97
2023-02-02T02:54:49.719Z,0.89
2023-02-02T02:57:49.329Z,0.95
2023-02-02T03:00:37.366Z,1.05
2023-02-02T03:03:22.715Z,0.97
2023-02-02T03:06:08.189Z,1.04
2023-02-02T03:08:40.709Z,1.01
2023-02-02T03:11:10.528Z,0.91
2023-02-02T03:13:37.469Z,0.99
2023-02-02T03:16:04.622Z,0.56
2023-02-02T03:18:33.197Z,0.89
2023-02-02T03:21:00.439Z,0.80
2023-02-02T03:23:27.581Z,0.74
2023-02-02T03:25:55.103Z,0.59
2023-02-02T03:28:23.526Z,0.74
2023-02-02T03:30:51.866Z,0.46
2023-02-02T03:33:18.804Z,0.56
2023-02-02T03:35:45.843Z,0.70
2023-02-02T03:38:12.744Z,0.93
2023-02-02T03:40:40.264Z,0.44
2023-02-02T03:43:07.518Z,0.50
2023-02-02T03:45:37.310Z,0.84
2023-02-02T03:48:05.238Z,0.81
2023-02-02T03:50:32.524Z,0.67
2023-02-02T03:52:59.193Z,0.80
2023-02-02T03:55:26.017Z,0.39
2023-02-02T03:57:52.778Z,0.66
2023-02-02T04:00:19.698Z,0.61
2023-02-02T04:02:46.324Z,0.56
2023-02-02T04:05:12.929Z,0.32
2023-02-02T04:07:39.437Z,0.30
2023-02-02T04:10:06.277Z,0.54
2023-02-02T04:12:32.928Z,0.01
2023-02-02T04:14:59.453Z,0.72
2023-02-02T04:17:26.094Z,0.65
2023-02-02T04:19:57.991Z,0.64
2023-02-02T04:22:26.183Z,0.62
2023-02-02T04:24:53.073Z,0.52
2023-02-02T04:27:19.714Z,0.37
2023-02-02T04:29:46.291Z,0.53
2023-02-02T04:32:15.882Z,0.47
2023-02-02T04:34:42.905Z,0.52
2023-02-02T04:37:10.403Z,0.62
2023-02-02T04:39:37.008Z,0.54
2023-02-02T04:42:03.859Z,0.46
2023-02-02T04:44:30.372Z,0.48
2023-02-02T04:46:56.886Z,0.39
2023-02-02T04:49:24.160Z,0.50
2023-02-02T04:51:50.758Z,0.52
2023-02-02T04:54:17.404Z,0.43
2023-02-02T04:56:44.160Z,0.16
2023-02-02T04:59:10.706Z,0.39
2023-02-02T05:01:37.276Z,0.37
2023-02-02T05:04:03.967Z,0.30
2023-02-02T05:06:30.559Z,0.21
2023-02-02T05:08:57.218Z,0.02
2023-02-02T05:11:24.174Z,0.16
2023-02-02T05:13:53.173Z,0.01
2023-02-02T05:16:20.340Z,0.03
2023-02-02T05:18:54.010Z,0.03
2023-02-02T05:21:21.627Z,0.09
2023-02-02T05:23:48.648Z,0.27
2023-02-02T05:26:18.538Z,0.21
2023-02-02T05:28:45.487Z,0.13
2023-02-02T05:31:12.434Z,0.34
2023-02-02T05:33:39.070Z,0.38
2023-02-02T05:36:06.245Z,0.35
2023-02-02T05:38:32.791Z,0.32
2023-02-02T05:41:00.437Z,0.22
2023-02-02T05:43:28.829Z,0.23
2023-02-02T05:45:55.360Z,0.13
2023-02-02T05:48:22.216Z,0.04
2023-02-02T05:50:59.829Z,0.05
2023-02-02T05:53:27.439Z,-0.10
2023-02-02T05:55:54.069Z,0.01
2023-02-02T05:58:20.744Z,0.07
2023-02-02T06:00:47.255Z,0.12
2023-02-02T06:03:13.944Z,0.14
2023-02-02T06:05:40.563Z,0.20
2023-02-02T06:08:07.157Z,0.32
2023-02-02T06:10:33.822Z,0.14
2023-02-02T06:13:00.349Z,0.27
2023-02-02T06:15:28.931Z,0.29
2023-02-02T06:17:55.541Z,0.19
2023-02-02T06:20:22.551Z,0.13
2023-02-02T06:22:49.211Z,0.11
2023-02-02T06:25:15.865Z,0.33
2023-02-02T06:27:42.478Z,0.31
2023-02-02T06:30:09.821Z,0.37
2023-02-02T06:32:36.447Z,0.32
2023-02-02T06:35:03.067Z,0.28
2023-02-02T06:37:30.849Z,0.08
2023-02-02T06:39:57.478Z,0.35
2023-02-02T06:42:24.085Z,-0.04
2023-02-02T06:44:50.680Z,0.02
2023-02-02T06:47:17.191Z,0.40
2023-02-02T06:49:43.701Z,0.41
2023-02-02T06:52:10.182Z,0.31
2023-02-02T06:54:36.750Z,0.19
2023-02-02T06:57:03.363Z,0.19
2023-02-02T06:59:29.868Z,-0.05
2023-02-02T07:01:56.561Z,0.20
2023-02-02T07:04:23.163Z,0.21
2023-02-02T07:06:49.802Z,-0.12
2023-02-02T07:09:17.682Z,0.18
2023-02-02T07:11:44.933Z,0.18
2023-02-02T07:14:12.406Z,0.18
2023-02-02T07:16:38.993Z,0.23
2023-02-02T07:19:05.602Z,0.25
2023-02-02T07:21:36.346Z,0.23
2023-02-02T07:24:05.418Z,0.33
2023-02-02T07:26:34.025Z,0.34
2023-02-02T07:29:00.681Z,0.44
2023-02-02T07:31:27.961Z,0.61
2023-02-02T07:33:54.573Z,1.03
2023-02-02T07:36:23.819Z,1.40
2023-02-02T07:38:57.312Z,1.50
2023-02-02T07:41:24.617Z,1.87
2023-02-02T07:43:51.505Z,2.26
2023-02-02T07:46:19.028Z,2.53
2023-02-02T07:48:45.658Z,2.87
2023-02-02T07:51:17.510Z,3.30
2023-02-02T07:53:49.959Z,3.56
2023-02-02T07:56:19.804Z,3.92
2023-02-02T07:58:46.816Z,4.11
2023-02-02T08:01:15.995Z,4.22
2023-02-02T08:03:43.354Z,4.55
2023-02-02T08:06:18.872Z,4.48
2023-02-02T08:08:45.979Z,4.88
2023-02-02T08:11:14.077Z,5.45
2023-02-02T08:13:42.236Z,5.73
2023-02-02T08:16:10.249Z,5.85
2023-02-02T08:18:38.384Z,6.23
2023-02-02T08:21:06.747Z,7.00
2023-02-02T08:23:33.430Z,7.42
2023-02-02T08:26:27.270Z,7.72
2023-02-02T08:28:57.371Z,8.18
2023-02-02T08:31:27.502Z,8.43
2023-02-02T08:33:55.039Z,8.97
2023-02-02T08:36:23.817Z,9.08
2023-02-02T08:38:51.017Z,9.73
2023-02-02T08:41:20.230Z,9.96
2023-02-02T08:43:46.817Z,10.21
2023-02-02T08:46:17.678Z,10.31
2023-02-02T08:48:44.658Z,10.83
2023-02-02T08:51:15.029Z,10.78
2023-02-02T08:53:42.554Z,11.12
2023-02-02T08:56:17.774Z,11.15
2023-02-02T08:58:46.788Z,11.15
2023-02-02T09:01:17.594Z,11.01
2023-02-02T09:03:45.092Z,11.30
2023-02-02T09:06:15.035Z,11.98
2023-02-02T09:08:42.079Z,12.33
2023-02-02T09:11:14.164Z,11.79
2023-02-02T09:13:42.329Z,12.10
2023-02-02T09:16:12.098Z,11.73
2023-02-02T09:18:40.141Z,12.00
2023-02-02T09:21:09.772Z,12.27
2023-02-02T09:23:39.747Z,12.07
2023-02-02T09:26:15.515Z,12.38
2023-02-02T09:28:44.982Z,12.03
2023-02-02T09:31:12.379Z,12.04
2023-02-02T09:33:39.384Z,11.73
2023-02-02T09:36:11.665Z,11.25
2023-02-02T09:38:39.459Z,11.17
2023-02-02T09:41:14.851Z,11.33
2023-02-02T09:43:56.463Z,11.11
2023-02-02T09:46:48.423Z,11.78
2023-02-02T09:49:23.133Z,12.63
2023-02-02T09:51:57.460Z,12.60
2023-02-02T09:54:36.365Z,12.93
2023-02-02T09:57:10.478Z,13.24
2023-02-02T09:59:41.739Z,13.99
2023-02-02T10:02:25.677Z,13.35
2023-02-02T10:05:00.807Z,13.86
2023-02-02T10:07:33.294Z,14.33
2023-02-02T10:10:05.269Z,14.44
2023-02-02T10:12:57.667Z,14.36
2023-02-02T10:15:46.006Z,14.01
2023-02-02T10:19:03.932Z,14.73
2023-02-02T10:21:45.637Z,15.07
2023-02-02T10:24:24.233Z,15.13
2023-02-02T10:26:54.665Z,15.04
2023-02-02T10:29:24.229Z,15.70
2023-02-02T10:32:14.996Z,16.71
2023-02-02T10:35:10.951Z,16.51
2023-02-02T10:38:02.669Z,15.90
2023-02-02T10:40:42.889Z,16.68
2023-02-02T10:43:47.370Z,17.50
2023-02-02T10:46:20.398Z,16.56
2023-02-02T10:48:48.853Z,16.67
2023-02-02T10:51:28.281Z,16.26
2023-02-02T10:53:59.097Z,17.25
2023-02-02T10:56:36.937Z,17.34
2023-02-02T10:59:06.787Z,17.23
2023-02-02T11:01:33.502Z,16.72
2023-02-02T11:04:18.926Z,17.74
2023-02-02T11:06:52.121Z,18.86
2023-02-02T11:09:28.439Z,16.87
2023-02-02T11:12:03.749Z,17.36
2023-02-02T11:14:45.193Z,15.78
2023-02-02T11:17:25.693Z,16.59
2023-02-02T11:19:53.065Z,16.83
2023-02-02T11:22:35.633Z,17.43
2023-02-02T11:25:28.026Z,17.13
2023-02-02T11:27:54.671Z,17.87
2023-02-02T11:30:27.169Z,18.12
2023-02-02T11:32:55.684Z,17.85
2023-02-02T11:35:31.691Z,18.78
2023-02-02T11:38:16.599Z,19.18
2023-02-02T11:41:02.316Z,19.86
2023-02-02T11:43:36.271Z,17.79
2023-02-02T11:46:06.420Z,18.04
2023-02-02T11:48:38.807Z,18.39
2023-02-02T11:51:07.991Z,18.39
2023-02-02T11:53:47.781Z,17.91
2023-02-02T11:56:25.119Z,18.73
2023-02-02T11:58:55.408Z,18.87
2023-02-02T12:01:29.089Z,19.10
2023-02-02T12:03:58.260Z,19.27
2023-02-02T12:06:38.204Z,18.27
2023-02-02T12:09:25.522Z,19.62
2023-02-02T12:11:51.967Z,19.09
2023-02-02T12:14:31.540Z,18.55
2023-02-02T12:17:00.826Z,19.69
2023-02-02T12:19:51.489Z,21.38
2023-02-02T12:22:55.316Z,20.01
2023-02-02T12:25:36.930Z,21.48
2023-02-02T12:28:30.924Z,21.08
2023-02-02T12:31:22.277Z,20.61
2023-02-02T12:33:52.057Z,20.91
2023-02-02T12:36:49.093Z,22.10
2023-02-02T12:39:30.605Z,21.13
2023-02-02T12:42:21.082Z,22.31
2023-02-02T12:44:55.211Z,23.04
2023-02-02T12:47:38.410Z,22.85
2023-02-02T12:50:12.496Z,22.04
2023-02-02T12:53:17.520Z,23.13
2023-02-02T12:56:02.830Z,21.69
2023-02-02T12:58:40.918Z,21.67
2023-02-02T13:01:33.467Z,22.16
2023-02-02T13:04:27.035Z,22.42
2023-02-02T13:07:25.200Z,22.40
2023-02-02T13:10:17.991Z,22.28
2023-02-02T13:12:51.872Z,22.06
2023-02-02T13:15:24.313Z,22.12
2023-02-02T13:18:01.221Z,23.20
2023-02-02T13:20:45.311Z,23.22
2023-02-02T13:23:25.493Z,23.30
2023-02-02T13:26:06.325Z,21.94
2023-02-02T13:28:43.550Z,21.67
2023-02-02T13:31:16.636Z,23.79
2023-02-02T13:33:45.867Z,24.73
2023-02-02T13:36:28.460Z,24.17
2023-02-02T13:38:58.516Z,24.97
2023-02-02T13:41:25.695Z,25.67
2023-02-02T13:44:29.359Z,24.41
2023-02-02T13:47:33.344Z,22.98
2023-02-02T13:50:07.613Z,24.31
2023-02-02T13:53:08.683Z,25.07
2023-02-02T13:55:57.096Z,24.47
2023-02-02T13:58:48.680Z,24.32
2023-02-02T14:01:16.073Z,24.72
2023-02-02T14:03:51.178Z,24.98
2023-02-02T14:06:20.750Z,24.29
2023-02-02T14:09:02.998Z,24.91
2023-02-02T14:11:33.019Z,24.41
2023-02-02T14:14:28.640Z,25.90
2023-02-02T14:16:56.600Z,25.65
2023-02-02T14:19:29.186Z,24.76
2023-02-02T14:22:13.112Z,24.24
2023-02-02T14:24:50.163Z,23.93
2023-02-02T14:27:16.751Z,24.19
2023-02-02T14:29:47.094Z,24.99
2023-02-02T14:32:29.193Z,24.66
2023-02-02T14:35:00.142Z,24.44
2023-02-02T14:37:26.657Z,24.21
2023-02-02T14:40:06.106Z,24.64
2023-02-02T14:43:10.369Z,24.08
2023-02-02T14:45:41.274Z,23.98
2023-02-02T14:48:26.648Z,23.81
2023-02-02T14:51:05.715Z,22.91
2023-02-02T14:53:36.645Z,22.77
2023-02-02T14:56:19.181Z,23.10
2023-02-02T14:58:46.034Z,23.19
2023-02-02T15:01:27.265Z,22.92
2023-02-02T15:03:57.217Z,24.25
2023-02-02T15:06:40.331Z,24.20
2023-02-02T15:12:14.661Z,23.79
2023-02-02T15:14:53.371Z,24.81
2023-02-02T15:17:26.141Z,24.13
2023-02-02T15:20:06.615Z,24.58
2023-02-02T15:22:47.609Z,24.38
2023-02-02T15:25:26.251Z,24.15
2023-02-02T15:27:58.001Z,23.45
2023-02-02T15:30:28.188Z,23.83
2023-02-02T15:32:56.092Z,23.41
2023-02-02T15:35:30.793Z,22.82
2023-02-02T15:38:04.617Z,23.16
2023-02-02T15:40:32.380Z,22.86
2023-02-02T15:43:03.028Z,22.35
2023-02-02T15:45:34.739Z,22.31
2023-02-02T15:48:09.047Z,21.30
2023-02-02T15:50:36.582Z,21.82
2023-02-02T15:53:03.399Z,21.82
2023-02-02T15:55:35.441Z,21.94
2023-02-02T15:58:03.291Z,21.88
2023-02-02T16:00:31.503Z,21.26
2023-02-02T16:03:01.141Z,20.73
2023-02-02T16:05:37.137Z,20.65
2023-02-02T16:08:14.056Z,19.68
2023-02-02T16:10:46.668Z,19.33
2023-02-02T16:13:32.919Z,19.11
2023-02-02T16:16:06.985Z,19.42
2023-02-02T16:18:35.494Z,19.57
2023-02-02T16:21:05.953Z,17.70
2023-02-02T16:23:35.885Z,17.20
2023-02-02T16:26:05.866Z,16.13
2023-02-02T16:28:33.593Z,15.97
2023-02-02T16:31:02.381Z,15.26
2023-02-02T16:33:40.790Z,15.12
2023-02-02T16:36:25.606Z,14.73
2023-02-02T16:38:54.591Z,14.34
2023-02-02T16:41:34.867Z,14.22
2023-02-02T16:44:30.604Z,14.09
2023-02-02T16:46:58.541Z,13.84
2023-02-02T16:49:26.916Z,13.59
2023-02-02T16:52:10.041Z,13.01
2023-02-02T16:54:38.011Z,13.26
2023-02-02T16:57:05.361Z,13.10
2023-02-02T16:59:35.182Z,12.51
2023-02-02T17:02:16.217Z,12.53
2023-02-02T17:04:48.188Z,12.26
2023-02-02T17:07:16.514Z,12.46
2023-02-02T17:09:45.894Z,12.33
2023-02-02T17:12:34.443Z,12.16
2023-02-02T17:15:23.768Z,12.06
2023-02-02T17:17:52.221Z,11.73
2023-02-02T17:20:19.869Z,11.88
2023-02-02T17:22:49.283Z,11.59
2023-02-02T17:25:19.587Z,11.29
2023-02-02T17:27:46.960Z,11.44
2023-02-02T17:30:18.522Z,11.46
2023-02-02T17:32:45.513Z,11.28
2023-02-02T17:35:18.320Z,11.09
2023-02-02T17:37:44.861Z,10.92
2023-02-02T17:40:15.896Z,11.00
2023-02-02T17:42:44.651Z,11.16
2023-02-02T17:45:16.751Z,11.12
2023-02-02T17:47:43.412Z,10.76
2023-02-02T17:50:11.240Z,10.61
2023-02-02T17:52:38.596Z,10.53
2023-02-02T17:55:32.557Z,10.45
2023-02-02T17:57:59.171Z,10.38
2023-02-02T18:00:30.000Z,10.24
2023-02-02T18:03:13.156Z,9.89
2023-02-02T18:05:42.768Z,10.15
2023-02-02T18:08:11.998Z,10.14
2023-02-02T18:10:39.200Z,9.83
2023-02-02T18:13:06.480Z,9.76
2023-02-02T18:15:35.005Z,9.73
2023-02-02T18:18:02.143Z,9.67
2023-02-02T18:20:28.679Z,9.52
2023-02-02T18:22:55.233Z,9.43
2023-02-02T18:25:21.924Z,9.46
2023-02-02T18:27:51.258Z,9.30
2023-02-02T18:30:18.703Z,8.95
2023-02-02T18:32:46.141Z,9.27
2023-02-02T18:35:12.710Z,9.15
2023-02-02T18:37:39.359Z,9.12
2023-02-02T18:40:07.947Z,8.99
2023-02-02T18:42:36.000Z,8.79
2023-02-02T18:45:03.378Z,8.82
2023-02-02T18:47:30.578Z,8.53
2023-02-02T18:49:57.187Z,8.33
2023-02-02T18:52:23.818Z,8.39
2023-02-02T18:54:50.469Z,8.15
2023-02-02T18:57:17.197Z,8.22
2023-02-02T18:59:44.094Z,8.21
2023-02-02T19:02:15.260Z,8.30
2023-02-02T19:05:04.840Z,8.24
2023-02-02T19:07:51.207Z,7.89
2023-02-02T19:10:18.918Z,7.98
2023-02-02T19:13:19.261Z,8.35
2023-02-02T19:15:50.370Z,8.33
2023-02-02T19:18:20.546Z,8.11
2023-02-02T19:20:47.764Z,8.11
2023-02-02T19:23:16.713Z,8.03
2023-02-02T19:25:51.521Z,8.01
2023-02-02T19:28:30.618Z,7.98
2023-02-02T19:31:00.167Z,7.98
2023-02-02T19:33:42.732Z,8.03
2023-02-02T19:36:17.846Z,7.90
2023-02-02T19:38:44.813Z,7.74
2023-02-02T19:41:19.370Z,7.80
2023-02-02T19:43:55.153Z,7.64
2023-02-02T19:46:24.282Z,7.59
2023-02-02T19:49:03.973Z,7.47
2023-02-02T19:51:33.620Z,7.37
2023-02-02T19:54:01.186Z,7.13
2023-02-02T19:56:34.861Z,6.88
2023-02-02T19:59:01.714Z,6.89
2023-02-02T20:01:32.867Z,6.63
2023-02-02T20:04:03.588Z,6.29
2023-02-02T20:06:32.176Z,6.78
2023-02-02T20:09:01.072Z,6.68
2023-02-02T20:11:39.576Z,6.63
2023-02-02T20:14:36.821Z,6.67
2023-02-02T20:17:12.532Z,6.53
2023-02-02T20:19:41.701Z,6.54
2023-02-02T20:22:40.839Z,6.55
2023-02-02T20:25:09.025Z,6.37
2023-02-02T20:27:35.634Z,6.38
2023-02-02T20:30:17.287Z,6.54
2023-02-02T20:32:43.886Z,6.63
2023-02-02T20:35:39.905Z,6.54
2023-02-02T20:38:22.073Z,6.47
2023-02-02T20:40:48.887Z,6.36
2023-02-02T20:43:16.007Z,6.34
2023-02-02T20:45:43.031Z,6.03
2023-02-02T20:48:12.196Z,6.07
2023-02-02T20:50:39.525Z,6.52
2023-02-02T20:53:06.356Z,6.48
2023-02-02T20:55:36.026Z,6.39
2023-02-02T20:58:04.407Z,6.31
2023-02-02T21:00:31.079Z,6.22
2023-02-02T21:03:01.121Z,6.17
2023-02-02T21:05:27.669Z,6.30
2023-02-02T21:08:00.428Z,6.37
2023-02-02T21:10:36.855Z,6.57
2023-02-02T21:13:06.309Z,6.38
2023-02-02T21:15:51.190Z,6.63
2023-02-02T21:18:20.596Z,6.73
2023-02-02T21:20:47.105Z,6.71
2023-02-02T21:23:20.381Z,6.43
2023-02-02T21:25:49.580Z,6.20
2023-02-02T21:28:24.183Z,6.25
2023-02-02T21:30:56.630Z,6.26
2023-02-02T21:33:25.911Z,5.91
2023-02-02T21:35:52.450Z,6.04
2023-02-02T21:38:21.075Z,5.71
2023-02-02T21:41:00.169Z,5.94
2023-02-02T21:43:26.986Z,5.76
2023-02-02T21:46:04.306Z,5.54
2023-02-02T21:48:38.692Z,5.71
2023-02-02T21:51:27.975Z,5.59
2023-02-02T21:53:54.519Z,5.36
2023-02-02T21:56:27.122Z,5.37
2023-02-02T21:58:57.023Z,5.37
2023-02-02T22:01:35.855Z,5.24
2023-02-02T22:04:02.597Z,5.11
2023-02-02T22:06:40.384Z,5.20
2023-02-02T22:09:14.990Z,5.15
2023-02-02T22:11:50.469Z,4.99
2023-02-02T22:14:50.500Z,4.45
2023-02-02T22:17:25.104Z,4.83
2023-02-02T22:20:09.034Z,4.58
2023-02-02T22:22:47.705Z,4.73
2023-02-02T22:25:16.981Z,4.71
2023-02-02T22:27:55.376Z,4.69
2023-02-02T22:30:31.499Z,4.63
2023-02-02T22:32:58.216Z,4.61
2023-02-02T22:35:25.211Z,4.56
2023-02-02T22:37:51.841Z,4.32
2023-02-02T22:40:22.331Z,3.95
2023-02-02T22:42:53.454Z,4.49
2023-02-02T22:45:20.820Z,4.19
2023-02-02T22:47:47.987Z,4.52
2023-02-02T22:50:20.530Z,4.63
2023-02-02T22:52:47.708Z,4.68
2023-02-02T22:55:14.859Z,4.89
2023-02-02T22:57:41.656Z,5.05
2023-02-02T23:00:13.798Z,4.75
2023-02-02T23:02:41.549Z,4.66
2023-02-02T23:05:10.634Z,4.52
2023-02-02T23:07:37.926Z,4.63
2023-02-02T23:10:05.899Z,4.40
2023-02-02T23:12:32.636Z,4.36
2023-02-02T23:14:59.433Z,4.13
2023-02-02T23:17:25.964Z,3.92
2023-02-02T23:19:52.521Z,4.07
2023-02-02T23:22:19.041Z,4.03
2023-02-02T23:24:45.649Z,3.78
2023-02-02T23:27:13.039Z,3.76
2023-02-02T23:29:39.781Z,3.72
2023-02-02T23:32:07.125Z,3.07
2023-02-02T23:34:33.804Z,3.30
2023-02-02T23:37:00.337Z,3.52
2023-02-02T23:39:26.905Z,3.76
2023-02-02T23:41:53.415Z,3.75
2023-02-02T23:44:19.980Z,3.66
2023-02-02T23:46:47.026Z,3.65
2023-02-02T23:49:14.000Z,3.55
2023-02-02T23:51:40.705Z,3.56
2023-02-02T23:54:07.939Z,3.62
2023-02-02T23:56:34.503Z,3.63
2023-02-02T23:59:01.029Z,3.64
